sensor_id;sensor_type;location;lat;lon;timestamp;pressure;altitude;pressure_sealevel;temperature
10869;BMP180;62667;48.698;8.762;2022-12-18T00:02:27;96842.00;;;-9.70
10869;BMP180;62667;48.698;8.762;2022-12-18T00:04:55;96856.00;;;-9.70
10869;BMP180;62667;48.698;8.762;2022-12-18T00:07:22;96850.00;;;-9.70
10869;BMP180;62667;48.698;8.762;2022-12-18T00:09:49;96851.00;;;-9.60
10869;BMP180;62667;48.698;8.762;2022-12-18T00:12:16;96849.00;;;-9.90
10869;BMP180;62667;48.698;8.762;2022-12-18T00:14:46;96853.00;;;-9.90
10869;BMP180;62667;48.698;8.762;2022-12-18T00:17:13;96861.00;;;-10.10
10869;BMP180;62667;48.698;8.762;2022-12-18T00:19:41;96855.00;;;-9.90
10869;BMP180;62667;48.698;8.762;2022-12-18T00:22:08;96843.00;;;-9.80
10869;BMP180;62667;48.698;8.762;2022-12-18T00:24:35;96850.00;;;-9.80
10869;BMP180;62667;48.698;8.762;2022-12-18T00:27:02;96860.00;;;-9.80
10869;BMP180;62667;48.698;8.762;2022-12-18T00:29:29;96866.00;;;-9.90
10869;BMP180;62667;48.698;8.762;2022-12-18T00:31:56;96856.00;;;-9.90
10869;BMP180;62667;48.698;8.762;2022-12-18T00:34:23;96867.00;;;-10.00
10869;BMP180;62667;48.698;8.762;2022-12-18T00:36:52;96869.00;;;-10.10
10869;BMP180;62667;48.698;8.762;2022-12-18T00:39:19;96855.00;;;-10.20
10869;BMP180;62667;48.698;8.762;2022-12-18T00:41:46;96849.00;;;-10.00
10869;BMP180;62667;48.698;8.762;2022-12-18T00:44:31;96865.00;;;-10.10
10869;BMP180;62667;48.698;8.762;2022-12-18T00:46:58;96865.00;;;-10.00
10869;BMP180;62667;48.698;8.762;2022-12-18T00:49:25;96866.00;;;-10.10
10869;BMP180;62667;48.698;8.762;2022-12-18T00:51:56;96871.00;;;-10.10
10869;BMP180;62667;48.698;8.762;2022-12-18T00:54:23;96859.00;;;-10.20
10869;BMP180;62667;48.698;8.762;2022-12-18T00:56:50;96855.00;;;-10.30
10869;BMP180;62667;48.698;8.762;2022-12-18T00:59:18;96864.00;;;-10.30
10869;BMP180;62667;48.698;8.762;2022-12-18T01:01:46;96870.00;;;-10.20
10869;BMP180;62667;48.698;8.762;2022-12-18T01:04:13;96866.00;;;-10.20
10869;BMP180;62667;48.698;8.762;2022-12-18T01:06:40;96853.00;;;-10.30
10869;BMP180;62667;48.698;8.762;2022-12-18T01:09:09;96863.00;;;-10.30
10869;BMP180;62667;48.698;8.762;2022-12-18T01:11:36;96868.00;;;-10.30
10869;BMP180;62667;48.698;8.762;2022-12-18T01:14:03;96867.00;;;-10.10
10869;BMP180;62667;48.698;8.762;2022-12-18T01:16:30;96861.00;;;-10.30
10869;BMP180;62667;48.698;8.762;2022-12-18T01:18:57;96869.00;;;-10.20
10869;BMP180;62667;48.698;8.762;2022-12-18T01:21:24;96852.00;;;-10.20
10869;BMP180;62667;48.698;8.762;2022-12-18T01:23:53;96851.00;;;-10.10
10869;BMP180;62667;48.698;8.762;2022-12-18T01:26:22;96852.00;;;-10.00
10869;BMP180;62667;48.698;8.762;2022-12-18T01:28:50;96845.00;;;-9.90
10869;BMP180;62667;48.698;8.762;2022-12-18T01:31:19;96860.00;;;-9.90
10869;BMP180;62667;48.698;8.762;2022-12-18T01:33:50;96848.00;;;-9.80
10869;BMP180;62667;48.698;8.762;2022-12-18T01:36:20;96858.00;;;-9.80
10869;BMP180;62667;48.698;8.762;2022-12-18T01:38:49;96863.00;;;-9.90
10869;BMP180;62667;48.698;8.762;2022-12-18T01:41:19;96868.00;;;-10.00
10869;BMP180;62667;48.698;8.762;2022-12-18T01:43:52;96857.00;;;-10.00
10869;BMP180;62667;48.698;8.762;2022-12-18T01:46:25;96863.00;;;-10.20
10869;BMP180;62667;48.698;8.762;2022-12-18T01:48:58;96852.00;;;-10.00
10869;BMP180;62667;48.698;8.762;2022-12-18T01:51:27;96859.00;;;-10.10
10869;BMP180;62667;48.698;8.762;2022-12-18T01:53:56;96853.00;;;-10.10
10869;BMP180;62667;48.698;8.762;2022-12-18T01:56:24;96858.00;;;-10.20
10869;BMP180;62667;48.698;8.762;2022-12-18T01:58:59;96853.00;;;-10.30
10869;BMP180;62667;48.698;8.762;2022-12-18T02:01:30;96867.00;;;-10.20
10869;BMP180;62667;48.698;8.762;2022-12-18T02:04:21;96863.00;;;-10.00
10869;BMP180;62667;48.698;8.762;2022-12-18T02:06:54;96852.00;;;-9.90
10869;BMP180;62667;48.698;8.762;2022-12-18T02:09:33;96871.00;;;-10.00
10869;BMP180;62667;48.698;8.762;2022-12-18T02:12:13;96856.00;;;-10.10
10869;BMP180;62667;48.698;8.762;2022-12-18T02:14:48;96856.00;;;-10.20
10869;BMP180;62667;48.698;8.762;2022-12-18T02:17:21;96852.00;;;-10.30
10869;BMP180;62667;48.698;8.762;2022-12-18T02:20:07;96860.00;;;-10.20
10869;BMP180;62667;48.698;8.762;2022-12-18T02:25:51;96854.00;;;-10.30
10869;BMP180;62667;48.698;8.762;2022-12-18T02:28:22;96871.00;;;-10.30
10869;BMP180;62667;48.698;8.762;2022-12-18T02:30:56;96867.00;;;-10.40
10869;BMP180;62667;48.698;8.762;2022-12-18T02:33:27;96840.00;;;-10.20
10869;BMP180;62667;48.698;8.762;2022-12-18T02:35:57;96869.00;;;-10.30
10869;BMP180;62667;48.698;8.762;2022-12-18T02:38:25;96845.00;;;-10.20
10869;BMP180;62667;48.698;8.762;2022-12-18T02:40:55;96862.00;;;-10.20
10869;BMP180;62667;48.698;8.762;2022-12-18T02:43:23;96857.00;;;-10.30
10869;BMP180;62667;48.698;8.762;2022-12-18T02:45:56;96866.00;;;-10.30
10869;BMP180;62667;48.698;8.762;2022-12-18T02:48:29;96859.00;;;-10.20
10869;BMP180;62667;48.698;8.762;2022-12-18T02:51:06;96867.00;;;-10.20
10869;BMP180;62667;48.698;8.762;2022-12-18T02:53:42;96861.00;;;-10.20
10869;BMP180;62667;48.698;8.762;2022-12-18T02:56:18;96858.00;;;-10.00
10869;BMP180;62667;48.698;8.762;2022-12-18T02:58:57;96860.00;;;-9.90
10869;BMP180;62667;48.698;8.762;2022-12-18T03:01:33;96856.00;;;-10.10
10869;BMP180;62667;48.698;8.762;2022-12-18T03:04:10;96830.00;;;-10.20
10869;BMP180;62667;48.698;8.762;2022-12-18T03:06:44;96858.00;;;-10.20
10869;BMP180;62667;48.698;8.762;2022-12-18T03:09:18;96841.00;;;-10.10
10869;BMP180;62667;48.698;8.762;2022-12-18T03:11:56;96871.00;;;-10.30
10869;BMP180;62667;48.698;8.762;2022-12-18T03:14:45;96868.00;;;-10.30
10869;BMP180;62667;48.698;8.762;2022-12-18T03:17:17;96875.00;;;-10.20
10869;BMP180;62667;48.698;8.762;2022-12-18T03:19:47;96854.00;;;-10.30
10869;BMP180;62667;48.698;8.762;2022-12-18T03:22:16;96869.00;;;-10.40
10869;BMP180;62667;48.698;8.762;2022-12-18T03:24:46;96872.00;;;-10.40
10869;BMP180;62667;48.698;8.762;2022-12-18T03:27:19;96869.00;;;-10.40
10869;BMP180;62667;48.698;8.762;2022-12-18T03:29:51;96887.00;;;-10.80
10869;BMP180;62667;48.698;8.762;2022-12-18T03:32:27;96880.00;;;-10.70
10869;BMP180;62667;48.698;8.762;2022-12-18T03:35:00;96876.00;;;-10.70
10869;BMP180;62667;48.698;8.762;2022-12-18T03:37:33;96872.00;;;-10.60
10869;BMP180;62667;48.698;8.762;2022-12-18T03:40:00;96877.00;;;-10.40
10869;BMP180;62667;48.698;8.762;2022-12-18T03:42:33;96871.00;;;-10.10
10869;BMP180;62667;48.698;8.762;2022-12-18T03:45:09;96883.00;;;-9.80
10869;BMP180;62667;48.698;8.762;2022-12-18T03:47:47;96875.00;;;-10.00
10869;BMP180;62667;48.698;8.762;2022-12-18T03:50:22;96858.00;;;-10.10
10869;BMP180;62667;48.698;8.762;2022-12-18T03:52:57;96869.00;;;-10.10
10869;BMP180;62667;48.698;8.762;2022-12-18T03:55:31;96877.00;;;-9.90
10869;BMP180;62667;48.698;8.762;2022-12-18T03:58:03;96873.00;;;-9.80
10869;BMP180;62667;48.698;8.762;2022-12-18T04:00:34;96861.00;;;-10.00
10869;BMP180;62667;48.698;8.762;2022-12-18T04:03:03;96870.00;;;-10.00
10869;BMP180;62667;48.698;8.762;2022-12-18T04:05:34;96871.00;;;-10.10
10869;BMP180;62667;48.698;8.762;2022-12-18T04:08:03;96876.00;;;-10.20
10869;BMP180;62667;48.698;8.762;2022-12-18T04:10:31;96872.00;;;-10.10
10869;BMP180;62667;48.698;8.762;2022-12-18T04:13:00;96873.00;;;-9.80
10869;BMP180;62667;48.698;8.762;2022-12-18T04:15:27;96877.00;;;-9.80
10869;BMP180;62667;48.698;8.762;2022-12-18T04:17:54;96871.00;;;-9.80
10869;BMP180;62667;48.698;8.762;2022-12-18T04:20:21;96874.00;;;-9.80
10869;BMP180;62667;48.698;8.762;2022-12-18T04:22:48;96876.00;;;-9.70
10869;BMP180;62667;48.698;8.762;2022-12-18T04:25:15;96861.00;;;-9.70
10869;BMP180;62667;48.698;8.762;2022-12-18T04:27:42;96885.00;;;-9.60
10869;BMP180;62667;48.698;8.762;2022-12-18T04:30:11;96870.00;;;-9.60
10869;BMP180;62667;48.698;8.762;2022-12-18T04:32:38;96866.00;;;-9.50
10869;BMP180;62667;48.698;8.762;2022-12-18T04:35:06;96868.00;;;-9.50
10869;BMP180;62667;48.698;8.762;2022-12-18T04:37:36;96862.00;;;-9.50
10869;BMP180;62667;48.698;8.762;2022-12-18T04:40:04;96857.00;;;-9.40
10869;BMP180;62667;48.698;8.762;2022-12-18T04:42:31;96864.00;;;-9.40
10869;BMP180;62667;48.698;8.762;2022-12-18T04:44:58;96868.00;;;-9.30
10869;BMP180;62667;48.698;8.762;2022-12-18T04:47:26;96870.00;;;-9.20
10869;BMP180;62667;48.698;8.762;2022-12-18T04:49:53;96871.00;;;-9.00
10869;BMP180;62667;48.698;8.762;2022-12-18T04:52:21;96867.00;;;-9.00
10869;BMP180;62667;48.698;8.762;2022-12-18T04:54:48;96872.00;;;-9.00
10869;BMP180;62667;48.698;8.762;2022-12-18T04:57:15;96869.00;;;-8.90
10869;BMP180;62667;48.698;8.762;2022-12-18T04:59:43;96886.00;;;-8.90
10869;BMP180;62667;48.698;8.762;2022-12-18T05:02:11;96870.00;;;-8.80
10869;BMP180;62667;48.698;8.762;2022-12-18T05:04:39;96881.00;;;-8.70
10869;BMP180;62667;48.698;8.762;2022-12-18T05:07:06;96885.00;;;-8.60
10869;BMP180;62667;48.698;8.762;2022-12-18T05:09:33;96882.00;;;-8.70
10869;BMP180;62667;48.698;8.762;2022-12-18T05:12:00;96870.00;;;-8.60
10869;BMP180;62667;48.698;8.762;2022-12-18T05:14:27;96887.00;;;-8.60
10869;BMP180;62667;48.698;8.762;2022-12-18T05:16:55;96885.00;;;-8.70
10869;BMP180;62667;48.698;8.762;2022-12-18T05:19:22;96870.00;;;-8.80
10869;BMP180;62667;48.698;8.762;2022-12-18T05:21:50;96870.00;;;-8.90
10869;BMP180;62667;48.698;8.762;2022-12-18T05:24:17;96870.00;;;-8.80
10869;BMP180;62667;48.698;8.762;2022-12-18T05:26:44;96881.00;;;-8.70
10869;BMP180;62667;48.698;8.762;2022-12-18T05:29:11;96873.00;;;-8.60
10869;BMP180;62667;48.698;8.762;2022-12-18T05:31:39;96867.00;;;-8.70
10869;BMP180;62667;48.698;8.762;2022-12-18T05:34:06;96871.00;;;-8.60
10869;BMP180;62667;48.698;8.762;2022-12-18T05:36:33;96867.00;;;-8.60
10869;BMP180;62667;48.698;8.762;2022-12-18T05:39:01;96879.00;;;-8.60
10869;BMP180;62667;48.698;8.762;2022-12-18T05:41:28;96878.00;;;-8.50
10869;BMP180;62667;48.698;8.762;2022-12-18T05:43:55;96871.00;;;-8.50
10869;BMP180;62667;48.698;8.762;2022-12-18T05:46:22;96857.00;;;-8.40
10869;BMP180;62667;48.698;8.762;2022-12-18T05:48:50;96857.00;;;-8.30
10869;BMP180;62667;48.698;8.762;2022-12-18T05:51:19;96863.00;;;-8.10
10869;BMP180;62667;48.698;8.762;2022-12-18T05:53:47;96864.00;;;-8.20
10869;BMP180;62667;48.698;8.762;2022-12-18T05:56:19;96860.00;;;-8.20
10869;BMP180;62667;48.698;8.762;2022-12-18T05:58:50;96871.00;;;-8.20
10869;BMP180;62667;48.698;8.762;2022-12-18T06:01:21;96865.00;;;-8.10
10869;BMP180;62667;48.698;8.762;2022-12-18T06:03:49;96860.00;;;-8.00
10869;BMP180;62667;48.698;8.762;2022-12-18T06:06:18;96877.00;;;-8.00
10869;BMP180;62667;48.698;8.762;2022-12-18T06:08:46;96876.00;;;-7.90
10869;BMP180;62667;48.698;8.762;2022-12-18T06:11:19;96880.00;;;-7.90
10869;BMP180;62667;48.698;8.762;2022-12-18T06:13:50;96883.00;;;-7.90
10869;BMP180;62667;48.698;8.762;2022-12-18T06:16:18;96886.00;;;-7.80
10869;BMP180;62667;48.698;8.762;2022-12-18T06:18:44;96891.00;;;-7.80
10869;BMP180;62667;48.698;8.762;2022-12-18T06:21:12;96897.00;;;-7.80
10869;BMP180;62667;48.698;8.762;2022-12-18T06:23:39;96888.00;;;-7.60
10869;BMP180;62667;48.698;8.762;2022-12-18T06:26:08;96899.00;;;-7.60
10869;BMP180;62667;48.698;8.762;2022-12-18T06:28:36;96907.00;;;-7.60
10869;BMP180;62667;48.698;8.762;2022-12-18T06:31:05;96901.00;;;-7.70
10869;BMP180;62667;48.698;8.762;2022-12-18T06:33:33;96897.00;;;-7.70
10869;BMP180;62667;48.698;8.762;2022-12-18T06:36:03;96902.00;;;-7.70
10869;BMP180;62667;48.698;8.762;2022-12-18T06:38:34;96907.00;;;-7.60
10869;BMP180;62667;48.698;8.762;2022-12-18T06:41:06;96916.00;;;-7.60
10869;BMP180;62667;48.698;8.762;2022-12-18T06:43:34;96906.00;;;-7.60
10869;BMP180;62667;48.698;8.762;2022-12-18T06:46:03;96912.00;;;-7.50
10869;BMP180;62667;48.698;8.762;2022-12-18T06:48:32;96913.00;;;-7.50
10869;BMP180;62667;48.698;8.762;2022-12-18T06:50:59;96917.00;;;-7.40
10869;BMP180;62667;48.698;8.762;2022-12-18T06:53:26;96901.00;;;-7.30
10869;BMP180;62667;48.698;8.762;2022-12-18T06:56:00;96918.00;;;-7.60
10869;BMP180;62667;48.698;8.762;2022-12-18T06:58:27;96923.00;;;-7.60
10869;BMP180;62667;48.698;8.762;2022-12-18T07:01:00;96928.00;;;-7.80
10869;BMP180;62667;48.698;8.762;2022-12-18T07:03:29;96926.00;;;-7.80
10869;BMP180;62667;48.698;8.762;2022-12-18T07:05:56;96923.00;;;-7.70
10869;BMP180;62667;48.698;8.762;2022-12-18T07:08:23;96924.00;;;-7.70
10869;BMP180;62667;48.698;8.762;2022-12-18T07:10:50;96928.00;;;-7.70
10869;BMP180;62667;48.698;8.762;2022-12-18T07:13:19;96933.00;;;-7.60
10869;BMP180;62667;48.698;8.762;2022-12-18T07:15:46;96939.00;;;-7.50
10869;BMP180;62667;48.698;8.762;2022-12-18T07:18:13;96935.00;;;-7.40
10869;BMP180;62667;48.698;8.762;2022-12-18T07:20:41;96936.00;;;-7.40
10869;BMP180;62667;48.698;8.762;2022-12-18T07:23:08;96931.00;;;-7.30
10869;BMP180;62667;48.698;8.762;2022-12-18T07:25:35;96933.00;;;-7.40
10869;BMP180;62667;48.698;8.762;2022-12-18T07:28:04;96935.00;;;-7.30
10869;BMP180;62667;48.698;8.762;2022-12-18T07:30:31;96926.00;;;-7.20
10869;BMP180;62667;48.698;8.762;2022-12-18T07:32:59;96928.00;;;-7.30
10869;BMP180;62667;48.698;8.762;2022-12-18T07:35:26;96920.00;;;-7.20
10869;BMP180;62667;48.698;8.762;2022-12-18T07:37:54;96926.00;;;-7.40
10869;BMP180;62667;48.698;8.762;2022-12-18T07:40:21;96931.00;;;-7.50
10869;BMP180;62667;48.698;8.762;2022-12-18T07:42:48;96930.00;;;-7.50
10869;BMP180;62667;48.698;8.762;2022-12-18T07:45:15;96939.00;;;-7.50
10869;BMP180;62667;48.698;8.762;2022-12-18T07:47:42;96937.00;;;-7.40
10869;BMP180;62667;48.698;8.762;2022-12-18T07:50:09;96948.00;;;-7.40
10869;BMP180;62667;48.698;8.762;2022-12-18T07:52:36;96947.00;;;-7.30
10869;BMP180;62667;48.698;8.762;2022-12-18T07:55:06;96940.00;;;-7.20
10869;BMP180;62667;48.698;8.762;2022-12-18T07:57:33;96946.00;;;-7.20
10869;BMP180;62667;48.698;8.762;2022-12-18T08:00:00;96947.00;;;-7.10
10869;BMP180;62667;48.698;8.762;2022-12-18T08:02:30;96947.00;;;-7.20
10869;BMP180;62667;48.698;8.762;2022-12-18T08:04:57;96942.00;;;-7.10
10869;BMP180;62667;48.698;8.762;2022-12-18T08:07:25;96937.00;;;-7.10
10869;BMP180;62667;48.698;8.762;2022-12-18T08:09:52;96943.00;;;-7.00
10869;BMP180;62667;48.698;8.762;2022-12-18T08:12:20;96937.00;;;-6.90
10869;BMP180;62667;48.698;8.762;2022-12-18T08:14:47;96938.00;;;-6.70
10869;BMP180;62667;48.698;8.762;2022-12-18T08:17:14;96949.00;;;-6.70
10869;BMP180;62667;48.698;8.762;2022-12-18T08:19:41;96935.00;;;-6.60
10869;BMP180;62667;48.698;8.762;2022-12-18T08:22:08;96946.00;;;-6.60
10869;BMP180;62667;48.698;8.762;2022-12-18T08:24:35;96947.00;;;-6.40
10869;BMP180;62667;48.698;8.762;2022-12-18T08:27:02;96935.00;;;-6.20
10869;BMP180;62667;48.698;8.762;2022-12-18T08:29:31;96939.00;;;-6.00
10869;BMP180;62667;48.698;8.762;2022-12-18T08:31:59;96947.00;;;-5.80
10869;BMP180;62667;48.698;8.762;2022-12-18T08:34:26;96937.00;;;-5.60
10869;BMP180;62667;48.698;8.762;2022-12-18T08:36:54;96957.00;;;-5.50
10869;BMP180;62667;48.698;8.762;2022-12-18T08:39:21;96937.00;;;-5.80
10869;BMP180;62667;48.698;8.762;2022-12-18T08:41:48;96940.00;;;-5.70
10869;BMP180;62667;48.698;8.762;2022-12-18T08:44:29;96942.00;;;-5.50
10869;BMP180;62667;48.698;8.762;2022-12-18T08:47:07;96931.00;;;-5.40
10869;BMP180;62667;48.698;8.762;2022-12-18T08:49:35;96920.00;;;-5.50
10869;BMP180;62667;48.698;8.762;2022-12-18T08:52:03;96922.00;;;-5.40
10869;BMP180;62667;48.698;8.762;2022-12-18T08:54:31;96912.00;;;-5.20
10869;BMP180;62667;48.698;8.762;2022-12-18T08:56:58;96912.00;;;-5.10
10869;BMP180;62667;48.698;8.762;2022-12-18T08:59:30;96913.00;;;-5.10
10869;BMP180;62667;48.698;8.762;2022-12-18T09:01:57;96916.00;;;-5.00
10869;BMP180;62667;48.698;8.762;2022-12-18T09:04:25;96903.00;;;-4.60
10869;BMP180;62667;48.698;8.762;2022-12-18T09:06:56;96916.00;;;-4.60
10869;BMP180;62667;48.698;8.762;2022-12-18T09:09:23;96909.00;;;-4.60
10869;BMP180;62667;48.698;8.762;2022-12-18T09:11:50;96911.00;;;-4.50
10869;BMP180;62667;48.698;8.762;2022-12-18T09:14:17;96911.00;;;-4.40
10869;BMP180;62667;48.698;8.762;2022-12-18T09:16:44;96921.00;;;-4.50
10869;BMP180;62667;48.698;8.762;2022-12-18T09:19:11;96904.00;;;-4.30
10869;BMP180;62667;48.698;8.762;2022-12-18T09:21:40;96894.00;;;-4.20
10869;BMP180;62667;48.698;8.762;2022-12-18T09:24:12;96906.00;;;-4.00
10869;BMP180;62667;48.698;8.762;2022-12-18T09:26:39;96910.00;;;-4.10
10869;BMP180;62667;48.698;8.762;2022-12-18T09:29:07;96920.00;;;-3.70
10869;BMP180;62667;48.698;8.762;2022-12-18T09:31:35;96914.00;;;-3.70
10869;BMP180;62667;48.698;8.762;2022-12-18T09:34:06;96903.00;;;-3.80
10869;BMP180;62667;48.698;8.762;2022-12-18T09:36:33;96907.00;;;-3.90
10869;BMP180;62667;48.698;8.762;2022-12-18T09:39:02;96900.00;;;-3.60
10869;BMP180;62667;48.698;8.762;2022-12-18T09:41:44;96916.00;;;-3.70
10869;BMP180;62667;48.698;8.762;2022-12-18T09:44:26;96914.00;;;-3.20
10869;BMP180;62667;48.698;8.762;2022-12-18T09:47:12;96913.00;;;-3.30
10869;BMP180;62667;48.698;8.762;2022-12-18T09:49:44;96927.00;;;-3.50
10869;BMP180;62667;48.698;8.762;2022-12-18T09:52:17;96914.00;;;-3.90
10869;BMP180;62667;48.698;8.762;2022-12-18T09:54:54;96900.00;;;-3.80
10869;BMP180;62667;48.698;8.762;2022-12-18T09:57:24;96921.00;;;-4.20
10869;BMP180;62667;48.698;8.762;2022-12-18T09:59:57;96918.00;;;-4.30
10869;BMP180;62667;48.698;8.762;2022-12-18T10:02:30;96917.00;;;-4.50
10869;BMP180;62667;48.698;8.762;2022-12-18T10:05:10;96918.00;;;-4.50
10869;BMP180;62667;48.698;8.762;2022-12-18T10:07:49;96911.00;;;-4.30
10869;BMP180;62667;48.698;8.762;2022-12-18T10:10:36;96919.00;;;-4.00
10869;BMP180;62667;48.698;8.762;2022-12-18T10:13:16;96916.00;;;-4.30
10869;BMP180;62667;48.698;8.762;2022-12-18T10:16:04;96920.00;;;-4.30
10869;BMP180;62667;48.698;8.762;2022-12-18T10:19:00;96919.00;;;-4.00
10869;BMP180;62667;48.698;8.762;2022-12-18T10:21:37;96911.00;;;-4.30
10869;BMP180;62667;48.698;8.762;2022-12-18T10:24:19;96914.00;;;-4.10
10869;BMP180;62667;48.698;8.762;2022-12-18T10:26:53;96903.00;;;-4.20
10869;BMP180;62667;48.698;8.762;2022-12-18T10:29:22;96917.00;;;-4.10
10869;BMP180;62667;48.698;8.762;2022-12-18T10:31:51;96904.00;;;-3.90
10869;BMP180;62667;48.698;8.762;2022-12-18T10:34:18;96908.00;;;-4.40
10869;BMP180;62667;48.698;8.762;2022-12-18T10:36:48;96906.00;;;-4.40
10869;BMP180;62667;48.698;8.762;2022-12-18T10:39:21;96913.00;;;-4.40
10869;BMP180;62667;48.698;8.762;2022-12-18T10:42:11;96905.00;;;-4.00
10869;BMP180;62667;48.698;8.762;2022-12-18T10:44:38;96897.00;;;-3.90
10869;BMP180;62667;48.698;8.762;2022-12-18T10:47:14;96911.00;;;-3.70
10869;BMP180;62667;48.698;8.762;2022-12-18T10:49:48;96917.00;;;-3.60
10869;BMP180;62667;48.698;8.762;2022-12-18T10:52:21;96905.00;;;-3.40
10869;BMP180;62667;48.698;8.762;2022-12-18T10:54:51;96900.00;;;-3.70
10869;BMP180;62667;48.698;8.762;2022-12-18T10:57:34;96897.00;;;-3.00
10869;BMP180;62667;48.698;8.762;2022-12-18T11:00:24;96902.00;;;-3.00
10869;BMP180;62667;48.698;8.762;2022-12-18T11:02:51;96879.00;;;-2.50
10869;BMP180;62667;48.698;8.762;2022-12-18T11:05:31;96898.00;;;-2.40
10869;BMP180;62667;48.698;8.762;2022-12-18T11:08:00;96907.00;;;-2.60
10869;BMP180;62667;48.698;8.762;2022-12-18T11:10:32;96902.00;;;-2.60
10869;BMP180;62667;48.698;8.762;2022-12-18T11:13:14;96886.00;;;-2.60
10869;BMP180;62667;48.698;8.762;2022-12-18T11:15:44;96876.00;;;-2.40
10869;BMP180;62667;48.698;8.762;2022-12-18T11:18:20;96879.00;;;-2.50
10869;BMP180;62667;48.698;8.762;2022-12-18T11:20:55;96871.00;;;-0.20
10869;BMP180;62667;48.698;8.762;2022-12-18T11:23:24;96830.00;;;-0.10
10869;BMP180;62667;48.698;8.762;2022-12-18T11:25:55;96841.00;;;1.00
10869;BMP180;62667;48.698;8.762;2022-12-18T11:28:37;96845.00;;;0.60
10869;BMP180;62667;48.698;8.762;2022-12-18T11:31:24;96842.00;;;0.00
10869;BMP180;62667;48.698;8.762;2022-12-18T11:33:59;96828.00;;;1.20
10869;BMP180;62667;48.698;8.762;2022-12-18T11:36:32;96824.00;;;1.60
10869;BMP180;62667;48.698;8.762;2022-12-18T11:39:12;96824.00;;;3.00
10869;BMP180;62667;48.698;8.762;2022-12-18T11:41:50;96826.00;;;6.20
10869;BMP180;62667;48.698;8.762;2022-12-18T11:44:42;96838.00;;;6.90
10869;BMP180;62667;48.698;8.762;2022-12-18T11:47:21;96839.00;;;8.30
10869;BMP180;62667;48.698;8.762;2022-12-18T11:49:52;96835.00;;;8.60
10869;BMP180;62667;48.698;8.762;2022-12-18T11:52:26;96848.00;;;8.00
10869;BMP180;62667;48.698;8.762;2022-12-18T11:54:58;96844.00;;;8.70
10869;BMP180;62667;48.698;8.762;2022-12-18T11:57:35;96853.00;;;7.00
10869;BMP180;62667;48.698;8.762;2022-12-18T12:00:12;96860.00;;;4.30
10869;BMP180;62667;48.698;8.762;2022-12-18T12:03:10;96857.00;;;3.60
10869;BMP180;62667;48.698;8.762;2022-12-18T12:05:59;96862.00;;;5.20
10869;BMP180;62667;48.698;8.762;2022-12-18T12:08:41;96849.00;;;5.00
10869;BMP180;62667;48.698;8.762;2022-12-18T12:11:20;96835.00;;;4.90
10869;BMP180;62667;48.698;8.762;2022-12-18T12:14:07;96841.00;;;6.10
10869;BMP180;62667;48.698;8.762;2022-12-18T12:16:50;96835.00;;;3.70
10869;BMP180;62667;48.698;8.762;2022-12-18T12:19:36;96836.00;;;2.20
10869;BMP180;62667;48.698;8.762;2022-12-18T12:22:13;96835.00;;;3.20
10869;BMP180;62667;48.698;8.762;2022-12-18T12:24:59;96831.00;;;3.10
10869;BMP180;62667;48.698;8.762;2022-12-18T12:27:38;96835.00;;;2.30
10869;BMP180;62667;48.698;8.762;2022-12-18T12:30:14;96838.00;;;3.40
10869;BMP180;62667;48.698;8.762;2022-12-18T12:32:59;96848.00;;;4.30
10869;BMP180;62667;48.698;8.762;2022-12-18T12:35:41;96849.00;;;4.80
10869;BMP180;62667;48.698;8.762;2022-12-18T12:38:16;96842.00;;;5.40
10869;BMP180;62667;48.698;8.762;2022-12-18T12:40:48;96848.00;;;5.40
10869;BMP180;62667;48.698;8.762;2022-12-18T12:43:27;96857.00;;;5.40
10869;BMP180;62667;48.698;8.762;2022-12-18T12:46:01;96858.00;;;5.40
10869;BMP180;62667;48.698;8.762;2022-12-18T12:48:40;96848.00;;;6.30
10869;BMP180;62667;48.698;8.762;2022-12-18T12:51:16;96871.00;;;6.60
10869;BMP180;62667;48.698;8.762;2022-12-18T12:53:44;96875.00;;;6.70
10869;BMP180;62667;48.698;8.762;2022-12-18T12:56:16;96873.00;;;6.40
10869;BMP180;62667;48.698;8.762;2022-12-18T12:58:55;96883.00;;;6.30
10869;BMP180;62667;48.698;8.762;2022-12-18T13:01:34;96878.00;;;6.00
10869;BMP180;62667;48.698;8.762;2022-12-18T13:04:16;96867.00;;;6.70
10869;BMP180;62667;48.698;8.762;2022-12-18T13:06:55;96865.00;;;6.70
10869;BMP180;62667;48.698;8.762;2022-12-18T13:09:30;96871.00;;;6.60
10869;BMP180;62667;48.698;8.762;2022-12-18T13:12:09;96874.00;;;6.20
10869;BMP180;62667;48.698;8.762;2022-12-18T13:15:13;96872.00;;;5.60
10869;BMP180;62667;48.698;8.762;2022-12-18T13:17:46;96867.00;;;5.20
10869;BMP180;62667;48.698;8.762;2022-12-18T13:20:16;96867.00;;;4.90
10869;BMP180;62667;48.698;8.762;2022-12-18T13:22:46;96863.00;;;4.00
10869;BMP180;62667;48.698;8.762;2022-12-18T13:25:33;96854.00;;;4.20
10869;BMP180;62667;48.698;8.762;2022-12-18T13:28:08;96865.00;;;4.50
10869;BMP180;62667;48.698;8.762;2022-12-18T13:30:53;96863.00;;;4.60
10869;BMP180;62667;48.698;8.762;2022-12-18T13:33:47;96861.00;;;4.60
10869;BMP180;62667;48.698;8.762;2022-12-18T13:36:28;96857.00;;;5.30
10869;BMP180;62667;48.698;8.762;2022-12-18T13:39:23;96856.00;;;5.40
10869;BMP180;62667;48.698;8.762;2022-12-18T13:41:54;96852.00;;;5.50
10869;BMP180;62667;48.698;8.762;2022-12-18T13:45:01;96847.00;;;5.60
10869;BMP180;62667;48.698;8.762;2022-12-18T13:47:33;96843.00;;;5.00
10869;BMP180;62667;48.698;8.762;2022-12-18T13:50:09;96845.00;;;4.90
10869;BMP180;62667;48.698;8.762;2022-12-18T13:52:39;96854.00;;;4.20
10869;BMP180;62667;48.698;8.762;2022-12-18T13:55:18;96855.00;;;4.20
10869;BMP180;62667;48.698;8.762;2022-12-18T13:57:46;96856.00;;;3.20
10869;BMP180;62667;48.698;8.762;2022-12-18T14:00:26;96870.00;;;3.10
10869;BMP180;62667;48.698;8.762;2022-12-18T14:02:55;96872.00;;;2.90
10869;BMP180;62667;48.698;8.762;2022-12-18T14:05:24;96870.00;;;2.60
10869;BMP180;62667;48.698;8.762;2022-12-18T14:07:54;96870.00;;;2.60
10869;BMP180;62667;48.698;8.762;2022-12-18T14:10:22;96863.00;;;2.70
10869;BMP180;62667;48.698;8.762;2022-12-18T14:12:51;96871.00;;;2.40
10869;BMP180;62667;48.698;8.762;2022-12-18T14:15:30;96870.00;;;2.20
10869;BMP180;62667;48.698;8.762;2022-12-18T14:18:01;96868.00;;;1.90
10869;BMP180;62667;48.698;8.762;2022-12-18T14:20:31;96872.00;;;1.80
10869;BMP180;62667;48.698;8.762;2022-12-18T14:23:01;96869.00;;;1.80
10869;BMP180;62667;48.698;8.762;2022-12-18T14:25:29;96865.00;;;1.70
10869;BMP180;62667;48.698;8.762;2022-12-18T14:28:15;96867.00;;;1.70
10869;BMP180;62667;48.698;8.762;2022-12-18T14:30:44;96873.00;;;1.20
10869;BMP180;62667;48.698;8.762;2022-12-18T14:33:14;96868.00;;;0.80
10869;BMP180;62667;48.698;8.762;2022-12-18T14:35:51;96870.00;;;0.70
10869;BMP180;62667;48.698;8.762;2022-12-18T14:38:30;96874.00;;;0.70
10869;BMP180;62667;48.698;8.762;2022-12-18T14:41:04;96875.00;;;0.50